This is the latest recevied weather packets stored in our database for station/object OK3MS-5. If no packets are shown the sender has not sent any weather packets the latest 10 day(s).
| Time | Temp. | Humidity | Pressure | Rain* | Wind** | Luminosity | Snow |
|---|---|---|---|---|---|---|---|
| 1777631106 | 15.56° C | 45% | 1027.2 hPa | 0 mm | - | 775 W/m² | - |
| 1777630805 | 14.44° C | 47% | 1027.5 hPa | 0 mm | - | 805 W/m² | - |
| 1777630504 | 14.44° C | 48% | 1027.6 hPa | 0 mm | - | 619 W/m² | - |
| 1777630203 | 15° C | 48% | 1027.5 hPa | 0 mm | - | 225 W/m² | - |
| 1777629904 | 15.56° C | 43% | 1027.3 hPa | 0 mm | - | 242 W/m² | - |
| 1777629604 | 15° C | 46% | 1027.5 hPa | 0 mm | - | 851 W/m² | - |
| 1777629303 | 15° C | 47% | 1027.5 hPa | 0 mm | - | 808 W/m² | - |
| 1777629004 | 14.44° C | 43% | 1027.6 hPa | 0 mm | - | 744 W/m² | - |
| 1777628703 | 14.44° C | 47% | 1027.7 hPa | 0 mm | - | 734 W/m² | - |
| 1777628404 | 14.44° C | 47% | 1027.7 hPa | 0 mm | - | 703 W/m² | - |
| 1777628105 | 14.44° C | 48% | 1027.8 hPa | 0 mm | - | 697 W/m² | - |
| 1777627804 | 14.44° C | 47% | 1027.7 hPa | 0 mm | - | 684 W/m² | - |
| 1777627503 | 14.44° C | 46% | 1027.8 hPa | 0 mm | - | 681 W/m² | - |
| 1777627204 | 13.89° C | 46% | 1027.9 hPa | 0 mm | - | 676 W/m² | - |
| 1777626906 | 13.33° C | 47% | 1027.9 hPa | 0 mm | - | 661 W/m² | - |
| 1777626604 | 13.33° C | 47% | 1028.2 hPa | 0 mm | - | 649 W/m² | - |
| 1777626308 | 13.89° C | 46% | 1028 hPa | 0 mm | - | 648 W/m² | - |
| 1777626004 | 13.89° C | 47% | 1028.1 hPa | 0 mm | - | 640 W/m² | - |
| 1777625704 | 13.89° C | 47% | 1028.1 hPa | 0 mm | - | 631 W/m² | - |
| 1777625402 | 13.33° C | 47% | 1028.3 hPa | 0 mm | - | 623 W/m² | - |
| 1777625102 | 13.33° C | 49% | 1028.2 hPa | 0 mm | - | 615 W/m² | - |
| 1777624807 | 13.33° C | 46% | 1028.3 hPa | 0 mm | - | 604 W/m² | - |
| 1777624508 | 12.78° C | 49% | 1028.4 hPa | 0 mm | - | 596 W/m² | - |
| 1777624203 | 13.33° C | 48% | 1028.2 hPa | 0 mm | - | 582 W/m² | - |
| 1777623905 | 12.78° C | 49% | 1028.3 hPa | 0 mm | - | 572 W/m² | - |
* Rain latest hour (hover to see other rain measurements)
** Current wind speed in m/s (hover to see current wind gust speed)